Suggestion Search

Define a bounding box (note: it will not wrap North/South over poles). If the range is zero degrees, a bounding box will not be used to constrain the search.

Centered On °   °

Match text in the suggestion title, science rationale or special notes. The search is case-insensitive. % is a wildcard (_ for a single character).

Find
Search

You may select science themes to limit query, otherwise suggestions from all themes will be returned.

Multiple values may be selected (shift + click).

  Rows per page
9,396 records found, displaying 501 to 600.[First/Prev] 2, 3, 4, 5, 6, 7, 8, 9 [Next/Last]
ID Suggestion Title Latitude Longitude Repeat Created Observation ID
176774 Gully monitoring -48.748 319.315 1 2019-09-30
176772 Gully monitoring -46.294 310.674 1 2019-09-30
176628 Gully monitoring 48.652 28.955 2 2019-09-24 ESP_062057_2290
176626 Gully monitoring 49.871 289.292 2 2019-09-24 ESP_061942_2300
176624 Northern hemisphere gullies 69.261 274.007 16 2019-09-24 ESP_062918_2495
176592 Slope monitoring -12.240 74.080 20 2019-09-23
176590 Slope monitoring -12.240 74.080 20 2019-09-23 ESP_061937_1675
176440 South polar layered deposits -81.000 193.000 1 2019-09-20 ESP_066074_0990
176424 Pit in northern plains crater 60.365 197.786 1 2019-09-19 ESP_061998_2405
176422 Gully monitoring 32.818 118.598 1 2019-09-19
176420 Gully monitoring 34.925 111.604 1 2019-09-19 ESP_066076_2150
176418 Gully monitoring 42.646 329.025 1 2019-09-19
176416 Gully monitoring 60.259 280.256 1 2019-09-19
176414 Gully monitoring 41.169 123.830 1 2019-09-19
176412 Gully monitoring 44.576 302.856 1 2019-09-19
176410 Gully monitoring 43.620 334.551 1 2019-09-19
176408 Gully monitoring 48.984 285.523 2 2019-09-19 ESP_063999_2295
176379 Crater with persistent ice 73.857 152.265 3 2017-06-22 ESP_053177_2540
176348 Thermophysical unit contact 50.134 222.924 1 2019-09-18
176346 Gully monitoring 47.213 82.417 1 2019-09-18
176344 Gully monitoring 46.348 348.056 1 2019-09-18
176342 Gully monitoring 37.444 149.715 1 2019-09-18 ESP_062435_2180
176340 Gully monitoring -36.826 198.672 1 2019-09-18
176338 Gullied crater wall -40.990 193.945 1 2019-09-18
176336 Gullied crater wall -44.353 186.317 1 2019-09-18
176334 Gullied crater wall -39.379 184.051 1 2019-09-18
176332 Gullied crater wall -37.816 171.211 1 2019-09-18
176330 Gullied crater wall -37.924 169.436 1 2019-09-18
176328 Gullied crater wall -39.225 154.149 1 2019-09-18
176326 Gully monitoring -37.678 152.323 1 2019-09-18
176324 Gullied crater wall -46.527 348.561 1 2019-09-18 ESP_065949_1330
176322 Gully monitoring -42.440 338.919 1 2019-09-18
176320 Gully monitoring -40.854 334.061 1 2019-09-18
176318 Gully monitoring -40.279 334.514 1 2019-09-18
176316 Gullied crater wall -38.681 334.074 1 2019-09-18
176314 Gullied crater wall -36.827 302.098 1 2019-09-18
176312 Gully monitoring -44.513 300.823 1 2019-09-18
176310 Valley and fan -42.954 290.535 1 2019-09-18 ESP_064830_1365
176308 Gullied crater wall -44.208 279.602 1 2019-09-18
176306 Gully repeat image -39.420 315.595 1 2019-09-18
176304 Gully monitoring -34.801 322.719 1 2019-09-18
176302 Gully monitoring -46.603 200.890 1 2019-09-18
176300 Gully monitoring -33.576 200.105 1 2019-09-18
176298 Gully monitoring -34.423 181.893 1 2019-09-18
176296 Gullied crater repeat image -34.637 135.621 1 2019-09-18
176294 Gully monitoring -44.091 244.093 1 2019-09-18 ESP_066520_1355
176292 Gullies -45.569 237.862 STEREO 2019-09-18
176290 Gullies -45.569 237.862 STEREO 2019-09-18
176180 Scalloped depressions in Utopia 48.460 90.939 STEREO 2019-09-17
176178 Scalloped depressions in Utopia 48.460 90.939 STEREO 2019-09-17
176172 Gullied crater wall 54.499 88.008 1 2019-09-17 ESP_062714_2350
176140 Candidate recent impact site -48.693 77.031 2 2019-09-16 ESP_065893_1310
176138 Candidate recent impact site -48.693 77.031 2 2019-09-16
176136 Gully monitoring 46.703 90.156 2 2019-09-11 ESP_061857_2270
176134 Gully monitoring 44.049 299.188 2 2019-09-11 ESP_061968_2245
175588 Defrosted view of defrosting features -81.573 121.426 1 2019-08-13 ESP_066425_0815
175581 Lava-coated crater near Athabasca Valles 8.278 154.938 STEREO 2014-05-20 ESP_061024_1885
175538 Highland channels -45.888 215.623 1 2019-08-05 ESP_064780_1340
175534 Arcadia Planitia dust devil survey 35.002 198.993 18 2019-08-05
175532 Arcadia Planitia dust devil survey 35.002 198.993 18 2019-08-05
175530 Arcadia Planitia dust devil survey 35.002 198.993 18 2019-08-05
175528 Arcadia Planitia dust devil survey 35.002 198.993 18 2019-08-05
175526 Arcadia Planitia dust devil survey 35.002 198.993 18 2019-08-05
175524 Arcadia Planitia dust devil survey 35.002 198.993 18 2019-08-05
175522 Arcadia Planitia dust devil survey 35.002 198.993 18 2019-08-05
175520 Arcadia Planitia dust devil survey 35.002 198.993 18 2019-08-05
175518 Arcadia Planitia dust devil survey 35.002 198.993 18 2019-08-05
175516 Arcadia Planitia dust devil survey 35.002 198.993 18 2019-08-05
175514 Arcadia Planitia dust devil survey 35.002 198.993 18 2019-08-05
175512 Arcadia Planitia dust devil survey 35.002 198.993 18 2019-08-05
175510 Arcadia Planitia dust devil survey 35.002 198.993 18 2019-08-05
175508 Arcadia Planitia dust devil survey 35.002 198.993 18 2019-08-05
175506 Arcadia Planitia dust devil survey 35.002 198.993 18 2019-08-05
175504 Arcadia Planitia dust devil survey 35.002 198.993 18 2019-08-05
175502 Arcadia Planitia dust devil survey 35.002 198.993 18 2019-08-05
175500 Arcadia Planitia dust devil survey 35.002 198.993 18 2019-08-05
175498 Channel near Moreux Crater 40.516 43.656 1 2019-08-05 ESP_062241_2210
175496 Cratered cones in Olympus Mons aureole 34.383 224.595 1 2019-08-05
175494 Channel in Tharsis region 29.805 230.336 1 2019-08-05 ESP_062498_2100
175492 Vent near Ceraunius Fossae 27.838 250.132 1 2019-08-05 ESP_062260_2080
175472 Crater monitoring 39.541 202.430 1 2019-08-02 ESP_062143_2200
175468 Gully monitoring 39.287 356.822 2 2019-08-01 ESP_062467_2195
175466 Cratered cones in Acidalia 39.922 331.293 2 2019-08-01
175464 Cratered cones in Acidalia 39.922 331.293 2 2019-08-01
175462 Gully monitoring 40.705 325.415 1 2019-08-01
175460 Raised circular feature 40.813 305.197 1 2019-08-01
175458 Gully monitoring 39.364 302.141 2 2019-08-01 ESP_061902_2195
175456 Tempe Terra landform 40.315 300.459 1 2019-08-01
175454 Gully monitoring 40.778 297.527 1 2019-08-01
175453 Pitted crater ejecta 40.326 16.417 1 2012-03-09 ESP_041038_2210
175452 Gully monitoring 39.840 132.236 1 2019-08-01
175450 Channel near Moreux Crater 40.516 43.656 1 2019-08-01 ESP_061951_2210
175448 Gully monitoring 40.215 27.129 1 2019-08-01
175446 Gully monitoring 39.158 21.250 1 2019-08-01
175444 Fractured feature 39.456 6.641 STEREO 2019-08-01
175442 Fractured feature 39.456 6.641 STEREO 2019-08-01
175440 Gully monitoring 39.647 4.152 1 2019-08-01
175416 Unit contact 35.648 82.387 1 2019-07-30 ESP_066486_2160
175414 Hummocky material 37.108 83.342 1 2019-07-30 ESP_061910_2175
175412 Lobate unit margin 37.290 81.713 1 2019-07-30 ESP_062042_2175

Each suggestion is given a unique ID. A stereo suggestion will be made into a pair at the discretion of the Science Theme Lead.

Suggestion title.

Latitudes are expressed in planetocentric degrees.

Longitude are measured in degrees and range east from 0 to 360.

1 for a single suggestion, STEREO for a stereo suggestion, otherwise the number of suggestions in a seasonal or other repeat set.

The date on which the suggestion was created.

If the suggestion has been retired, a link to the observation page.

The username of the suggester.